Time;durP1;ratioP1;P1;durP2;ratioP2;P2;SDS_P1;SDS_P2;PMS_P1;PMS_P2;Temp;Humidity;BMP_temperature;BMP_pressure;BME280_temperature;BME280_humidity;BME280_pressure;Samples;Min_cycle;Max_cycle;Signal;HPM_P1;HPM_P2
2022/09/19 00:00:42;;;;;;;3.47;1.88;;;21.20;56.20;;;;;;5030246;28;20155;-67
2022/09/19 00:03:09;;;;;;;4.28;2.00;;;21.20;56.20;;;;;;5012148;28;20034;-66
2022/09/19 00:05:39;;;;;;;3.72;2.10;;;21.20;56.20;;;;;;5034491;28;20044;-66
2022/09/19 00:08:05;;;;;;;3.70;1.75;;;21.10;56.20;;;;;;5016599;28;20025;-66
2022/09/19 00:10:37;;;;;;;3.63;1.90;;;21.10;56.20;;;;;;5034302;28;20535;-67
2022/09/19 00:13:04;;;;;;;4.35;2.05;;;21.10;56.20;;;;;;5015713;28;20040;-65
2022/09/19 00:15:30;;;;;;;3.92;1.92;;;21.10;56.20;;;;;;5034078;28;20064;-65
2022/09/19 00:17:55;;;;;;;4.75;1.90;;;21.10;56.30;;;;;;5016324;28;20025;-66
2022/09/19 00:20:21;;;;;;;3.58;2.00;;;21.10;56.20;;;;;;5033563;28;20025;-65
2022/09/19 00:24:45;;;;;;;3.47;1.80;;;21.10;56.20;;;;;;5034205;28;20117;-64
2022/09/19 00:25:32;;;;;;;3.78;2.08;;;21.10;56.20;;;;;;5033809;28;20501;-64
2022/09/19 00:27:58;;;;;;;3.28;1.90;;;21.10;56.30;;;;;;5016315;28;20123;-65
2022/09/19 00:30:23;;;;;;;3.20;1.80;;;21.10;56.40;;;;;;5030398;28;20535;-65
2022/09/19 00:32:49;;;;;;;3.78;1.80;;;21.10;56.40;;;;;;5033734;28;20413;-65
2022/09/19 00:35:15;;;;;;;3.45;1.88;;;21.10;56.30;;;;;;5008024;28;20045;-64
2022/09/19 00:37:41;;;;;;;3.22;1.83;;;21.00;56.30;;;;;;5033833;28;20497;-65
2022/09/19 00:40:07;;;;;;;3.47;2.00;;;21.10;56.40;;;;;;5033903;28;20110;-64
2022/09/19 00:42:34;;;;;;;4.10;1.90;;;21.10;56.40;;;;;;5033815;28;20025;-64
2022/09/19 00:45:11;;;;;;;3.97;1.95;;;21.00;56.30;;;;;;5033590;28;20029;-64
2022/09/19 00:47:42;;;;;;;3.35;1.90;;;21.00;56.40;;;;;;5014530;28;20094;-64
2022/09/19 00:50:13;;;;;;;2.90;1.60;;;21.00;56.30;;;;;;5032957;28;20365;-64
2022/09/19 00:52:51;;;;;;;2.75;1.63;;;21.00;56.40;;;;;;5031796;28;20108;-64
2022/09/19 00:55:17;;;;;;;3.50;1.92;;;21.00;56.40;;;;;;5033640;28;20400;-64
2022/09/19 00:58:00;;;;;;;2.85;1.60;;;21.00;56.40;;;;;;5015720;28;20418;-64
2022/09/19 01:00:26;;;;;;;2.95;1.67;;;21.00;56.40;;;;;;5032896;28;20120;-64
2022/09/19 01:02:52;;;;;;;3.90;1.90;;;21.00;56.40;;;;;;5033309;28;20057;-64
2022/09/19 01:05:35;;;;;;;3.60;1.70;;;21.00;56.50;;;;;;5033211;28;20476;-64
2022/09/19 01:08:28;;;;;;;3.20;1.77;;;21.00;56.50;;;;;;5032254;28;20222;-65
2022/09/19 01:11:10;;;;;;;3.40;1.83;;;21.00;56.50;;;;;;5014436;28;20029;-63
2022/09/19 01:13:57;;;;;;;3.53;1.80;;;21.00;56.50;;;;;;5011653;28;20069;-63
2022/09/19 01:16:41;;;;;;;3.35;1.70;;;21.00;56.60;;;;;;5032592;28;20061;-65
2022/09/19 01:19:40;;;;;;;2.92;1.40;;;20.90;56.50;;;;;;5032881;28;20400;-64
2022/09/19 01:22:47;;;;;;;3.03;1.70;;;20.90;56.50;;;;;;5031517;28;20017;-64
2022/09/19 01:25:31;;;;;;;3.63;1.90;;;20.90;56.50;;;;;;5032808;28;20037;-64
2022/09/19 01:28:03;;;;;;;3.22;1.80;;;20.90;56.50;;;;;;5031290;28;20029;-64
2022/09/19 01:30:30;;;;;;;3.40;1.60;;;20.90;56.50;;;;;;5032396;28;20421;-63
2022/09/19 01:33:01;;;;;;;3.88;1.80;;;20.90;56.40;;;;;;5032841;28;20022;-63
2022/09/19 01:35:31;;;;;;;3.05;1.60;;;20.90;56.50;;;;;;5027130;28;20117;-65
2022/09/19 01:38:05;;;;;;;3.78;1.70;;;20.90;56.50;;;;;;5029350;28;20504;-64
2022/09/19 01:40:32;;;;;;;3.83;1.70;;;20.90;56.50;;;;;;5031479;28;20017;-63
2022/09/19 01:42:58;;;;;;;3.10;1.70;;;20.90;56.50;;;;;;5032814;28;20481;-65
2022/09/19 01:45:31;;;;;;;2.72;1.42;;;20.90;56.50;;;;;;5032687;28;20040;-65
2022/09/19 01:48:21;;;;;;;3.08;1.52;;;20.90;56.50;;;;;;5031678;28;20666;-66
2022/09/19 01:51:23;;;;;;;2.38;1.73;;;20.90;56.50;;;;;;5031671;28;20040;-65
2022/09/19 01:53:55;;;;;;;2.78;1.40;;;20.90;56.60;;;;;;5032447;28;20037;-64
2022/09/19 01:56:57;;;;;;;2.88;1.67;;;20.90;56.50;;;;;;5031666;28;20341;-63
2022/09/19 01:59:57;;;;;;;2.65;1.48;;;20.90;56.60;;;;;;5030866;28;20025;-64
2022/09/19 02:02:34;;;;;;;2.35;1.50;;;20.90;56.50;;;;;;5031659;28;20036;-64
2022/09/19 02:05:09;;;;;;;3.13;1.50;;;20.80;56.50;;;;;;5032442;28;20507;-63
2022/09/19 02:07:48;;;;;;;2.88;1.55;;;20.80;56.50;;;;;;5032108;28;20029;-64
2022/09/19 02:10:17;;;;;;;3.15;1.65;;;20.80;56.50;;;;;;5032191;28;20596;-64
2022/09/19 02:12:44;;;;;;;2.58;1.30;;;20.80;56.50;;;;;;5030806;28;20505;-64
2022/09/19 02:15:14;;;;;;;3.10;1.60;;;20.80;56.50;;;;;;5014048;28;20053;-63
2022/09/19 02:17:50;;;;;;;3.05;1.60;;;20.80;56.50;;;;;;5022626;28;20462;-64
2022/09/19 02:20:32;;;;;;;2.03;1.10;;;20.80;56.50;;;;;;5031240;28;20018;-64
2022/09/19 02:23:12;;;;;;;3.53;1.83;;;20.80;56.50;;;;;;5031251;28;20027;-64
2022/09/19 02:25:39;;;;;;;2.13;1.23;;;20.80;56.50;;;;;;5031156;28;20139;-65
2022/09/19 02:28:13;;;;;;;2.42;1.20;;;20.80;56.50;;;;;;5031722;28;20036;-64
2022/09/19 02:30:41;;;;;;;2.65;1.40;;;20.80;56.50;;;;;;5013378;28;20116;-63
2022/09/19 02:33:07;;;;;;;2.50;1.38;;;20.80;56.50;;;;;;5030965;28;20076;-64
2022/09/19 02:36:03;;;;;;;2.75;1.60;;;20.80;56.50;;;;;;5031590;28;20021;-64
2022/09/19 02:38:43;;;;;;;2.30;1.23;;;20.80;56.50;;;;;;5031403;28;20551;-65
2022/09/19 02:41:30;;;;;;;2.25;1.25;;;20.80;56.50;;;;;;5031496;28;20018;-64
2022/09/19 02:44:08;;;;;;;2.42;1.20;;;20.80;56.50;;;;;;5031430;28;20357;-63
2022/09/19 02:47:01;;;;;;;2.45;1.50;;;20.80;56.50;;;;;;5013446;28;20106;-63
2022/09/19 02:49:47;;;;;;;2.75;1.40;;;20.80;56.50;;;;;;5031034;28;20033;-63
2022/09/19 02:52:19;;;;;;;2.20;1.35;;;20.80;56.50;;;;;;5030807;28;20022;-64
2022/09/19 02:54:55;;;;;;;2.50;1.33;;;20.80;56.50;;;;;;5031276;28;20485;-64
2022/09/19 02:57:24;;;;;;;2.38;1.30;;;20.70;56.40;;;;;;5030544;28;20547;-64
2022/09/19 02:59:58;;;;;;;2.10;1.25;;;20.70;56.40;;;;;;5031475;28;20100;-65
2022/09/19 03:02:28;;;;;;;2.83;1.27;;;20.80;56.40;;;;;;5030748;28;20144;-63
2022/09/19 03:05:14;;;;;;;2.17;1.15;;;20.70;56.40;;;;;;5031204;28;20083;-63
2022/09/19 03:07:45;;;;;;;2.53;1.40;;;20.70;56.50;;;;;;5031026;28;20075;-64
2022/09/19 03:10:19;;;;;;;2.45;1.33;;;20.70;56.40;;;;;;5031023;28;20025;-63
2022/09/19 03:12:57;;;;;;;2.10;1.10;;;20.70;56.40;;;;;;5030563;28;20497;-63
2022/09/19 03:15:49;;;;;;;2.60;1.45;;;20.70;56.40;;;;;;5030264;28;20065;-63
2022/09/19 03:18:17;;;;;;;2.90;1.30;;;20.70;56.40;;;;;;5030988;28;20029;-65
2022/09/19 03:20:59;;;;;;;2.55;1.30;;;20.70;56.40;;;;;;5030844;28;20180;-66
2022/09/19 03:23:34;;;;;;;2.72;1.30;;;20.70;56.40;;;;;;5030899;28;20473;-65
2022/09/19 03:26:01;;;;;;;2.00;1.17;;;20.70;56.40;;;;;;5029522;28;20600;-65
2022/09/19 03:28:27;;;;;;;2.83;1.35;;;20.70;56.40;;;;;;5030789;28;20104;-65
2022/09/19 03:30:56;;;;;;;2.42;1.30;;;20.70;56.40;;;;;;5012658;28;20588;-65
2022/09/19 03:33:23;;;;;;;2.70;1.35;;;20.70;56.40;;;;;;5030219;28;20025;-65
2022/09/19 03:35:50;;;;;;;2.67;1.30;;;20.70;56.40;;;;;;5030658;28;20049;-66
2022/09/19 03:38:15;;;;;;;1.85;1.10;;;20.70;56.40;;;;;;5034299;28;20029;-65
2022/09/19 03:40:41;;;;;;;2.05;1.15;;;20.70;56.40;;;;;;5037331;28;20342;-64
2022/09/19 03:43:07;;;;;;;2.72;1.17;;;20.70;56.40;;;;;;5010325;28;20027;-65
2022/09/19 03:45:32;;;;;;;2.20;1.10;;;20.60;56.30;;;;;;5037237;28;20397;-64
2022/09/19 03:47:58;;;;;;;1.65;1.00;;;20.60;56.40;;;;;;5037222;28;20033;-65
2022/09/19 03:50:23;;;;;;;2.13;1.10;;;20.60;56.40;;;;;;5037186;28;20029;-65
2022/09/19 03:52:49;;;;;;;1.98;1.10;;;20.60;56.30;;;;;;5037003;28;20055;-65
2022/09/19 03:55:15;;;;;;;1.95;1.10;;;20.60;56.40;;;;;;5037267;28;20362;-64
2022/09/19 03:57:41;;;;;;;2.00;1.20;;;20.60;56.30;;;;;;5037401;28;20037;-64
2022/09/19 04:00:08;;;;;;;2.80;1.15;;;20.60;56.30;;;;;;5037094;28;20104;-62
2022/09/19 04:02:34;;;;;;;1.90;1.20;;;20.60;56.30;;;;;;5056681;28;20146;-62
2022/09/19 04:05:02;;;;;;;2.13;1.10;;;20.60;56.30;;;;;;5057097;28;20024;-63
2022/09/19 04:07:28;;;;;;;2.00;1.10;;;20.60;56.40;;;;;;5056546;28;20396;-62
2022/09/19 04:09:56;;;;;;;1.95;1.00;;;20.60;56.40;;;;;;5057050;28;20116;-63
2022/09/19 04:12:23;;;;;;;1.38;1.00;;;20.60;56.30;;;;;;5056900;28;20033;-64
2022/09/19 04:14:48;;;;;;;1.70;1.10;;;20.60;56.30;;;;;;5056689;28;20515;-63
2022/09/19 04:17:15;;;;;;;2.50;1.20;;;20.60;56.30;;;;;;5056997;28;20021;-63
2022/09/19 04:19:42;;;;;;;2.20;1.30;;;20.60;56.30;;;;;;5039042;28;20029;-64
2022/09/19 04:22:08;;;;;;;2.10;1.05;;;20.60;56.40;;;;;;5055929;28;20058;-63
2022/09/19 04:24:34;;;;;;;1.92;1.20;;;20.60;56.40;;;;;;5056793;28;20029;-65
2022/09/19 04:27:08;;;;;;;2.65;1.20;;;20.60;56.40;;;;;;5022877;28;20511;-63
2022/09/19 04:29:35;;;;;;;2.50;1.08;;;20.60;56.40;;;;;;5056203;28;20043;-64
2022/09/19 04:32:04;;;;;;;2.10;1.20;;;20.60;56.40;;;;;;5038038;28;20419;-63
2022/09/19 04:34:30;;;;;;;1.88;1.05;;;20.60;56.50;;;;;;5056874;28;20025;-63
2022/09/19 04:36:57;;;;;;;2.50;1.20;;;20.60;56.50;;;;;;5038923;28;20028;-64
2022/09/19 04:39:24;;;;;;;1.95;1.27;;;20.60;56.50;;;;;;5056798;28;20480;-63
2022/09/19 04:41:52;;;;;;;1.98;1.08;;;20.60;56.50;;;;;;5056695;28;20025;-63
2022/09/19 04:44:18;;;;;;;2.30;1.10;;;20.60;56.60;;;;;;5056968;28;20025;-63
2022/09/19 04:46:44;;;;;;;2.47;1.20;;;20.60;56.60;;;;;;5056674;28;20078;-64
2022/09/19 04:49:11;;;;;;;2.55;1.10;;;20.50;56.50;;;;;;5054539;28;20426;-63
2022/09/19 04:51:37;;;;;;;1.95;1.10;;;20.50;56.60;;;;;;5053420;28;20112;-63
2022/09/19 04:54:04;;;;;;;1.30;0.90;;;20.50;56.50;;;;;;5053114;28;20108;-63
2022/09/19 04:56:29;;;;;;;1.65;0.90;;;20.50;56.60;;;;;;5053445;28;20104;-63
2022/09/19 04:58:55;;;;;;;2.22;1.20;;;20.50;56.60;;;;;;5053330;28;20104;-64
2022/09/19 05:01:20;;;;;;;1.83;1.00;;;20.50;56.70;;;;;;5052726;28;20388;-64
2022/09/19 05:03:47;;;;;;;2.17;1.00;;;20.50;56.70;;;;;;5035414;28;20116;-63
2022/09/19 05:06:13;;;;;;;2.88;1.27;;;20.50;56.70;;;;;;5043765;28;20072;-64
2022/09/19 05:08:40;;;;;;;2.05;1.00;;;20.50;56.70;;;;;;5053217;28;20025;-64
2022/09/19 05:11:07;;;;;;;1.33;0.90;;;20.50;56.70;;;;;;5035429;28;20477;-64
2022/09/19 05:13:37;;;;;;;2.70;1.20;;;20.50;56.70;;;;;;5052815;28;20025;-65
2022/09/19 05:16:04;;;;;;;1.83;1.10;;;20.50;56.70;;;;;;5054531;28;20068;-64
2022/09/19 05:18:34;;;;;;;1.92;1.17;;;20.50;56.70;;;;;;5051598;28;20055;-64
2022/09/19 05:21:05;;;;;;;2.30;1.20;;;20.50;56.90;;;;;;5034723;28;20029;-64
2022/09/19 05:23:30;;;;;;;1.80;1.10;;;20.60;56.90;;;;;;5053218;28;20380;-63
2022/09/19 05:26:01;;;;;;;1.95;1.00;;;20.60;56.80;;;;;;5043865;28;20077;-64
2022/09/19 05:28:27;;;;;;;1.98;1.02;;;20.60;56.90;;;;;;5052746;28;20033;-63
2022/09/19 05:30:54;;;;;;;1.33;0.80;;;20.60;56.80;;;;;;5027674;28;20041;-64
2022/09/19 05:33:25;;;;;;;1.35;0.80;;;20.70;56.90;;;;;;5032686;28;20075;-63
2022/09/19 05:35:51;;;;;;;1.95;1.00;;;20.70;56.80;;;;;;5032611;28;20354;-64
2022/09/19 05:38:17;;;;;;;1.83;1.05;;;20.70;56.70;;;;;;5032718;28;20036;-64
2022/09/19 05:40:42;;;;;;;1.63;0.95;;;20.80;56.60;;;;;;5032681;28;20021;-64
2022/09/19 05:43:08;;;;;;;2.42;1.10;;;20.80;56.60;;;;;;5032743;28;20057;-64
2022/09/19 05:45:34;;;;;;;2.60;1.40;;;20.80;56.50;;;;;;5032585;28;20033;-64
2022/09/19 05:48:05;;;;;;;1.98;1.00;;;20.90;56.50;;;;;;5032468;28;20040;-64
2022/09/19 05:50:32;;;;;;;2.22;1.10;;;20.90;56.40;;;;;;5032506;28;20034;-64
2022/09/19 05:55:42;;;;;;;2.58;1.20;;;20.90;56.20;;;;;;5031050;28;20031;-64
2022/09/19 05:58:09;;;;;;;2.17;1.10;;;20.90;56.10;;;;;;5032448;28;20469;-64
2022/09/19 06:00:37;;;;;;;2.28;1.13;;;21.00;56.10;;;;;;5031377;28;20128;-63
2022/09/19 06:03:05;;;;;;;1.80;0.88;;;21.00;56.00;;;;;;5031635;28;20080;-64
2022/09/19 06:05:38;;;;;;;1.98;1.00;;;21.00;56.10;;;;;;5031883;28;20492;-64
2022/09/19 06:08:04;;;;;;;2.28;1.17;;;21.00;56.10;;;;;;5031774;28;20022;-65
2022/09/19 06:10:34;;;;;;;1.70;1.20;;;21.00;56.00;;;;;;5032108;28;20033;-64
2022/09/19 06:13:00;;;;;;;;;;;21.10;56.00;;;;;;5032507;28;20461;-64
2022/09/19 06:15:25;;;;;;;2.95;0.90;;;21.10;55.90;;;;;;5031854;28;19924;-63
2022/09/19 06:17:58;;;;;;;2.00;1.00;;;21.10;55.80;;;;;;5031661;28;20112;-65
2022/09/19 06:20:24;;;;;;;1.83;1.00;;;21.10;56.30;;;;;;5029722;28;20044;-63
2022/09/19 06:22:56;;;;;;;2.70;1.10;;;21.20;55.80;;;;;;5031882;28;20053;-64
2022/09/19 06:25:22;;;;;;;1.75;1.00;;;21.20;55.70;;;;;;5031766;28;20056;-64
2022/09/19 06:27:55;;;;;;;2.42;1.20;;;21.20;55.70;;;;;;5031899;28;20049;-64
2022/09/19 06:30:21;;;;;;;1.80;1.00;;;21.30;55.70;;;;;;5031273;28;20109;-63
2022/09/19 06:32:46;;;;;;;2.00;1.00;;;21.30;55.60;;;;;;5031399;28;20457;-63
2022/09/19 06:35:12;;;;;;;2.10;1.00;;;21.30;55.50;;;;;;5031762;28;20108;-64
2022/09/19 06:37:37;;;;;;;1.77;1.00;;;21.30;56.00;;;;;;5031788;28;20434;-63
2022/09/19 06:40:03;;;;;;;2.00;1.08;;;21.40;55.50;;;;;;5031237;28;20029;-64
2022/09/19 06:42:29;;;;;;;2.28;1.08;;;21.40;55.30;;;;;;5013803;28;20032;-64
2022/09/19 06:44:55;;;;;;;2.63;0.90;;;21.40;55.30;;;;;;5031500;28;20021;-64
2022/09/19 06:47:20;;;;;;;1.95;1.00;;;21.40;55.20;;;;;;5031424;28;20119;-63
2022/09/19 06:49:46;;;;;;;1.80;0.93;;;21.40;55.20;;;;;;5031416;28;20072;-63
2022/09/19 06:52:11;;;;;;;1.90;1.00;;;21.50;55.50;;;;;;5031453;28;20033;-63
2022/09/19 06:54:37;;;;;;;2.05;1.00;;;21.50;55.40;;;;;;5031513;28;20041;-63
2022/09/19 06:57:03;;;;;;;2.22;1.08;;;21.50;55.40;;;;;;5031250;28;20053;-64
2022/09/19 06:59:29;;;;;;;3.10;1.20;;;21.50;55.50;;;;;;5031404;28;20102;-63
2022/09/19 07:01:54;;;;;;;2.67;1.40;;;21.50;55.40;;;;;;5030757;28;20030;-64
2022/09/19 07:04:20;;;;;;;2.38;1.10;;;21.60;55.20;;;;;;5031163;28;20021;-64
2022/09/19 07:06:46;;;;;;;2.28;1.23;;;21.50;55.10;;;;;;5031151;28;20021;-64
2022/09/19 07:09:11;;;;;;;2.28;1.05;;;21.60;55.00;;;;;;5031118;28;20389;-63
2022/09/19 07:11:37;;;;;;;2.88;1.00;;;21.60;55.00;;;;;;5031010;28;20525;-63
2022/09/19 07:14:04;;;;;;;3.55;1.10;;;21.60;55.40;;;;;;5012766;28;20108;-64
2022/09/19 07:16:30;;;;;;;2.95;1.20;;;21.60;54.80;;;;;;5030887;28;20061;-64
2022/09/19 07:18:56;;;;;;;4.18;1.20;;;21.60;54.80;;;;;;5031072;28;20079;-63
2022/09/19 07:21:21;;;;;;;2.45;1.10;;;21.70;54.80;;;;;;5031020;28;20053;-64
2022/09/19 07:23:47;;;;;;;2.08;1.10;;;21.70;54.70;;;;;;5030936;28;20473;-64
2022/09/19 07:26:14;;;;;;;2.60;1.10;;;21.70;54.60;;;;;;5030967;28;20367;-64
2022/09/19 07:28:39;;;;;;;1.73;0.95;;;21.70;54.50;;;;;;5030591;28;20029;-64
2022/09/19 07:31:05;;;;;;;2.58;1.17;;;21.70;54.60;;;;;;5029947;28;20229;-64
2022/09/19 07:33:31;;;;;;;1.92;1.00;;;21.70;54.60;;;;;;5030802;28;20401;-64
2022/09/19 07:35:57;;;;;;;2.78;1.20;;;21.70;54.50;;;;;;5030791;28;20025;-63
2022/09/19 07:38:25;;;;;;;2.83;1.00;;;21.70;54.40;;;;;;5030829;28;20021;-63
2022/09/19 07:40:50;;;;;;;2.75;1.10;;;21.70;54.50;;;;;;5030693;28;20053;-64
2022/09/19 07:43:16;;;;;;;2.28;1.10;;;21.80;54.50;;;;;;5030787;28;20512;-64
2022/09/19 07:45:44;;;;;;;2.20;1.20;;;21.80;54.40;;;;;;5030744;28;20036;-64
2022/09/19 07:48:10;;;;;;;2.00;1.00;;;21.80;54.30;;;;;;5030147;28;20363;-64
2022/09/19 07:50:36;;;;;;;3.13;1.08;;;21.80;54.20;;;;;;5030622;28;20061;-64
2022/09/19 07:53:04;;;;;;;2.55;1.20;;;21.80;54.20;;;;;;5030628;28;20445;-64
2022/09/19 07:55:30;;;;;;;2.58;1.13;;;21.80;54.10;;;;;;5029538;28;20026;-64
2022/09/19 07:57:58;;;;;;;2.88;1.38;;;21.80;54.10;;;;;;5030672;28;20025;-64
2022/09/19 08:00:25;;;;;;;3.15;1.40;;;21.90;54.10;;;;;;5029605;28;20385;-64
2022/09/19 08:02:58;;;;;;;3.45;1.27;;;21.90;54.10;;;;;;5030627;28;20030;-63
2022/09/19 08:05:25;;;;;;;2.38;1.08;;;21.80;54.00;;;;;;5030462;28;20030;-63
2022/09/19 08:07:51;;;;;;;2.75;1.23;;;21.90;54.20;;;;;;5012686;28;20033;-64
2022/09/19 08:10:18;;;;;;;4.57;1.27;;;21.80;54.20;;;;;;5030752;28;20033;-63
2022/09/19 08:12:44;;;;;;;3.25;1.15;;;21.90;54.30;;;;;;5012559;28;20079;-64
2022/09/19 08:15:15;;;;;;;3.22;1.10;;;21.90;54.10;;;;;;5030329;28;20068;-63
2022/09/19 08:18:00;;;;;;;3.92;1.27;;;21.90;54.10;;;;;;5030314;28;20026;-63
2022/09/19 08:20:28;;;;;;;3.70;1.25;;;21.90;54.10;;;;;;5030444;28;20018;-63
2022/09/19 08:23:01;;;;;;;2.35;1.27;;;21.90;54.00;;;;;;5030990;28;20460;-64
2022/09/19 08:25:28;;;;;;;2.75;1.10;;;21.90;54.00;;;;;;5033659;28;20481;-64
2022/09/19 08:27:57;;;;;;;2.50;1.10;;;21.90;53.90;;;;;;5034217;28;20026;-63
2022/09/19 08:30:24;;;;;;;3.22;1.10;;;22.00;53.90;;;;;;5033273;28;20522;-63
2022/09/19 08:32:50;;;;;;;2.65;1.08;;;22.00;53.90;;;;;;5033645;28;20072;-64
2022/09/19 08:35:20;;;;;;;3.13;0.80;;;22.00;53.90;;;;;;5034019;28;20428;-63
2022/09/19 08:37:46;;;;;;;;;;;22.00;53.90;;;;;;5034277;28;20474;-63
2022/09/19 08:40:21;;;;;;;2.17;1.20;;;22.00;53.90;;;;;;5049045;28;19912;-64
2022/09/19 08:43:00;;;;;;;2.92;1.20;;;22.00;53.80;;;;;;5033610;28;20363;-64
2022/09/19 08:45:55;;;;;;;3.53;1.47;;;22.00;53.80;;;;;;5033706;28;20033;-64
2022/09/19 08:48:27;;;;;;;4.15;1.05;;;22.00;53.70;;;;;;5033230;28;20256;-63
2022/09/19 08:51:03;;;;;;;3.63;1.38;;;22.00;53.70;;;;;;5033502;28;20492;-64
2022/09/19 08:53:34;;;;;;;2.53;1.10;;;22.00;53.70;;;;;;5032390;28;20060;-63
2022/09/19 08:56:00;;;;;;;3.17;1.10;;;22.00;53.70;;;;;;5032591;28;20489;-63
2022/09/19 08:58:29;;;;;;;2.15;1.10;;;22.00;53.70;;;;;;5033681;28;20025;-63
2022/09/19 09:00:55;;;;;;;2.30;1.00;;;22.00;54.20;;;;;;5032891;28;20385;-63
2022/09/19 09:03:38;;;;;;;3.22;1.10;;;22.00;53.70;;;;;;5033258;28;20029;-63
2022/09/19 09:06:27;;;;;;;3.42;1.17;;;22.00;53.70;;;;;;5032068;28;20037;-63
2022/09/19 09:09:19;;;;;;;2.80;1.15;;;22.00;53.70;;;;;;5033142;28;20033;-64
2022/09/19 09:12:03;;;;;;;4.57;1.20;;;22.10;53.60;;;;;;5032832;28;20032;-63
2022/09/19 09:15:13;;;;;;;3.20;1.15;;;22.10;53.50;;;;;;5033067;28;20061;-64
2022/09/19 09:17:45;;;;;;;2.17;1.10;;;22.10;53.40;;;;;;4963450;28;20058;-63
2022/09/19 09:20:19;;;;;;;2.72;1.27;;;22.20;53.50;;;;;;5009611;28;20572;-63
2022/09/19 09:22:50;;;;;;;3.92;1.20;;;22.10;53.50;;;;;;5031885;28;20056;-65
2022/09/19 09:25:18;;;;;;;2.72;1.13;;;22.10;53.40;;;;;;5032978;28;20068;-64
2022/09/19 09:28:06;;;;;;;2.63;1.10;;;22.10;53.30;;;;;;5032833;28;20056;-64
2022/09/19 09:30:40;;;;;;;4.93;1.40;;;22.10;53.30;;;;;;4999959;28;20264;-64
2022/09/19 09:33:29;;;;;;;3.63;1.15;;;22.10;53.20;;;;;;5032617;28;20567;-64
2022/09/19 09:36:06;;;;;;;2.20;1.00;;;22.20;53.20;;;;;;5031249;28;20396;-63
2022/09/19 09:38:36;;;;;;;1.75;0.93;;;22.20;53.20;;;;;;5032957;28;20362;-64
2022/09/19 09:44:13;;;;;;;2.60;1.00;;;22.20;53.20;;;;;;5031717;28;20059;-63
2022/09/19 09:47:10;;;;;;;2.40;1.08;;;22.20;53.20;;;;;;5014405;28;20030;-64
2022/09/19 09:49:36;;;;;;;1.85;1.08;;;22.20;53.10;;;;;;5032391;28;20501;-64
2022/09/19 09:52:14;;;;;;;2.83;1.10;;;22.20;53.10;;;;;;5032359;28;20021;-63
2022/09/19 09:57:51;;;;;;;2.00;1.00;;;22.20;53.10;;;;;;5032624;28;20024;-64
2022/09/19 10:03:35;;;;;;;2.15;1.15;;;22.20;53.00;;;;;;5031992;28;20499;-64
2022/09/19 10:06:18;;;;;;;2.03;1.08;;;22.20;53.00;;;;;;5032187;28;20048;-64
2022/09/19 10:09:00;;;;;;;3.67;1.00;;;22.20;53.00;;;;;;5032066;28;20030;-64
2022/09/19 10:11:58;;;;;;;3.08;1.15;;;22.20;53.00;;;;;;5014213;28;20041;-63
2022/09/19 10:14:28;;;;;;;2.33;1.20;;;22.30;53.00;;;;;;5021423;28;20042;-63
2022/09/19 10:16:59;;;;;;;2.33;1.02;;;22.20;52.90;;;;;;5031714;28;20437;-63
2022/09/19 10:19:36;;;;;;;2.80;1.20;;;22.30;52.90;;;;;;5031904;28;20018;-63
2022/09/19 10:22:03;;;;;;;7.90;1.23;;;22.30;52.90;;;;;;5031272;28;20437;-63
2022/09/19 10:24:43;;;;;;;3.17;1.02;;;22.20;52.90;;;;;;5031453;28;20396;-63
2022/09/19 10:27:14;;;;;;;2.05;1.00;;;22.30;53.00;;;;;;5030410;28;20033;-64
2022/09/19 10:30:01;;;;;;;2.17;1.10;;;22.30;53.00;;;;;;5031553;28;20499;-64
2022/09/19 10:32:37;;;;;;;2.97;1.10;;;22.20;52.90;;;;;;5031171;28;20474;-64
2022/09/19 10:35:26;;;;;;;2.22;0.90;;;22.30;52.90;;;;;;5030711;28;20366;-63
2022/09/19 10:38:14;;;;;;;2.00;1.10;;;22.30;52.90;;;;;;5030192;28;20024;-63
2022/09/19 10:41:00;;;;;;;1.98;0.90;;;22.30;52.80;;;;;;5030021;28;20520;-64
2022/09/19 10:43:36;;;;;;;2.92;1.00;;;22.30;52.80;;;;;;5031183;28;20113;-63
2022/09/19 10:46:06;;;;;;;2.08;1.02;;;22.30;52.80;;;;;;5031324;28;20028;-64
2022/09/19 10:48:39;;;;;;;1.95;0.85;;;22.30;52.70;;;;;;5030674;28;20099;-63
2022/09/19 10:51:08;;;;;;;3.03;0.98;;;22.30;52.70;;;;;;5031377;28;20453;-65
2022/09/19 10:53:38;;;;;;;1.92;1.00;;;22.30;52.80;;;;;;5013638;28;20099;-63
2022/09/19 10:56:44;;;;;;;2.67;1.20;;;22.30;52.70;;;;;;5031302;28;20044;-63
2022/09/19 10:59:13;;;;;;;4.15;1.10;;;22.30;52.70;;;;;;4931883;29;20020;-63
2022/09/19 11:01:39;;;;;;;2.72;1.08;;;22.30;52.60;;;;;;5011746;28;20960;-65
2022/09/19 11:04:10;;;;;;;2.85;1.20;;;22.30;52.60;;;;;;5030726;28;20029;-64
2022/09/19 11:07:02;;;;;;;2.75;1.17;;;22.40;52.60;;;;;;5004593;28;20041;-63
2022/09/19 11:09:37;;;;;;;3.55;1.42;;;22.30;52.50;;;;;;5011857;28;20033;-63
2022/09/19 11:12:05;;;;;;;2.38;1.23;;;22.40;52.60;;;;;;5030583;28;20053;-63
2022/09/19 11:14:41;;;;;;;3.22;1.10;;;22.30;52.50;;;;;;5031070;28;20460;-64
2022/09/19 11:17:22;;;;;;;3.15;1.15;;;22.30;52.50;;;;;;5030031;28;20021;-64
2022/09/19 11:20:16;;;;;;;2.65;1.10;;;22.30;52.50;;;;;;5031049;28;20103;-64
2022/09/19 11:23:03;;;;;;;2.47;1.08;;;22.40;52.60;;;;;;5030141;28;20025;-64
2022/09/19 11:25:52;;;;;;;2.67;1.17;;;22.40;52.60;;;;;;5030043;28;20063;-64
2022/09/19 11:28:29;;;;;;;2.25;1.27;;;22.40;52.60;;;;;;5030146;28;20100;-64
2022/09/19 11:31:11;;;;;;;4.13;1.33;;;22.40;52.60;;;;;;5030426;28;20445;-64
2022/09/19 11:33:58;;;;;;;2.28;1.10;;;22.40;52.60;;;;;;5028276;28;20029;-64
2022/09/19 11:36:33;;;;;;;3.10;1.20;;;22.40;52.60;;;;;;5030886;28;20433;-64
2022/09/19 11:39:20;;;;;;;2.28;1.10;;;22.40;52.60;;;;;;5029899;28;20466;-63
2022/09/19 11:41:54;;;;;;;2.38;1.17;;;22.40;52.50;;;;;;5030769;28;20028;-64
2022/09/19 11:44:48;;;;;;;3.72;1.20;;;22.40;52.50;;;;;;5030815;28;20563;-64
2022/09/19 11:47:28;;;;;;;3.65;1.17;;;22.40;52.60;;;;;;5029983;28;20017;-63
2022/09/19 11:50:01;;;;;;;2.83;1.23;;;22.40;52.60;;;;;;5030039;28;20032;-64
2022/09/19 11:53:04;;;;;;;2.78;1.10;;;22.40;52.60;;;;;;5029785;28;20022;-64
2022/09/19 11:55:43;;;;;;;2.50;1.25;;;22.40;52.60;;;;;;5029537;28;20527;-64
2022/09/19 11:58:35;;;;;;;2.60;1.15;;;22.40;52.50;;;;;;5030170;28;20147;-63
2022/09/19 12:01:29;;;;;;;2.92;1.30;;;22.40;52.50;;;;;;5033989;28;20488;-63
2022/09/19 12:04:23;;;;;;;3.08;1.30;;;22.40;52.50;;;;;;5033364;28;20116;-63
2022/09/19 12:07:11;;;;;;;2.25;0.98;;;22.40;52.60;;;;;;5033592;28;20026;-64
2022/09/19 12:09:45;;;;;;;2.40;1.05;;;22.40;52.60;;;;;;5033124;28;20037;-64
2022/09/19 12:12:15;;;;;;;2.78;1.10;;;22.40;52.60;;;;;;5008194;28;20030;-63
2022/09/19 12:14:49;;;;;;;2.78;1.15;;;22.40;52.60;;;;;;5034408;28;20069;-63
2022/09/19 12:17:29;;;;;;;2.97;1.30;;;22.40;52.60;;;;;;5034480;28;20108;-63
2022/09/19 12:20:12;;;;;;;2.63;1.15;;;22.40;52.60;;;;;;5034280;28;20569;-63
2022/09/19 12:22:44;;;;;;;2.92;1.33;;;22.40;52.60;;;;;;5034880;28;20029;-63
2022/09/19 12:25:12;;;;;;;3.22;1.50;;;22.40;52.60;;;;;;5034631;28;20036;-63
2022/09/19 12:27:56;;;;;;;3.63;1.57;;;22.50;52.60;;;;;;5033114;28;20687;-64
2022/09/19 12:30:23;;;;;;;3.45;1.30;;;22.50;52.60;;;;;;5033497;28;20046;-64
2022/09/19 12:32:56;;;;;;;2.85;1.25;;;22.40;52.50;;;;;;5034115;28;20130;-64
2022/09/19 12:35:41;;;;;;;3.80;1.63;;;22.50;52.60;;;;;;5034137;28;20035;-64
2022/09/19 12:38:20;;;;;;;3.33;1.30;;;22.40;52.60;;;;;;5033498;28;20117;-63
2022/09/19 12:40:53;;;;;;;3.50;1.23;;;22.50;52.60;;;;;;5034168;28;20021;-63
2022/09/19 12:43:48;;;;;;;3.25;1.27;;;22.40;52.60;;;;;;5033808;28;20036;-63
2022/09/19 12:46:31;;;;;;;3.13;1.23;;;22.50;52.70;;;;;;5033923;28;20117;-63
2022/09/19 12:49:03;;;;;;;3.15;1.30;;;22.50;52.60;;;;;;5033950;28;20131;-62
2022/09/19 12:51:53;;;;;;;5.22;1.40;;;22.50;52.60;;;;;;5031872;28;20422;-63
2022/09/19 12:54:37;;;;;;;3.83;1.35;;;22.50;52.60;;;;;;5032139;28;20037;-63
2022/09/19 12:57:24;;;;;;;3.90;1.33;;;22.50;52.60;;;;;;5033458;28;20095;-62
2022/09/19 12:59:51;;;;;;;4.70;1.48;;;22.50;52.60;;;;;;5033557;28;20022;-63
2022/09/19 13:02:58;;;;;;;4.55;1.42;;;22.50;52.60;;;;;;5032420;28;20489;-63
2022/09/19 13:05:27;;;;;;;2.30;1.20;;;22.50;52.60;;;;;;5009280;28;20045;-63
2022/09/19 13:08:04;;;;;;;3.10;1.37;;;22.50;52.60;;;;;;5032881;28;20045;-63
2022/09/19 13:10:43;;;;;;;2.70;1.25;;;22.50;52.60;;;;;;5032326;28;20257;-63
2022/09/19 13:13:30;;;;;;;3.00;1.30;;;22.50;52.70;;;;;;5032806;28;20139;-63
2022/09/19 13:16:07;;;;;;;3.50;1.35;;;22.50;52.60;;;;;;5033409;28;20029;-63
2022/09/19 13:24:06;;;;;;;3.40;1.48;;;22.60;52.40;;;;;;5031840;28;20068;-62
2022/09/19 13:26:36;;;;;;;3.25;1.30;;;22.60;52.40;;;;;;5033201;28;20030;-62
2022/09/19 13:29:28;;;;;;;3.10;1.30;;;22.60;52.40;;;;;;5032384;28;20057;-62
2022/09/19 13:31:57;;;;;;;3.30;1.30;;;22.60;52.30;;;;;;5032022;28;20490;-62
2022/09/19 13:34:39;;;;;;;3.13;1.40;;;22.60;52.30;;;;;;5032884;28;20073;-63
2022/09/19 13:37:26;;;;;;;3.15;1.20;;;22.60;52.40;;;;;;5032889;28;20049;-62